sensor_id;sensor_type;location;lat;lon;timestamp;temperature;humidity
11035;DHT22;5571;48.110;-1.706;2023-04-01T00:01:58;10.90;99.90
11035;DHT22;5571;48.110;-1.706;2023-04-01T00:04:23;10.80;99.90
11035;DHT22;5571;48.110;-1.706;2023-04-01T00:06:49;10.80;99.90
11035;DHT22;5571;48.110;-1.706;2023-04-01T00:09:15;10.80;99.90
11035;DHT22;5571;48.110;-1.706;2023-04-01T00:11:41;10.70;99.90
11035;DHT22;5571;48.110;-1.706;2023-04-01T00:14:07;10.70;99.90
11035;DHT22;5571;48.110;-1.706;2023-04-01T00:16:33;10.70;99.90
11035;DHT22;5571;48.110;-1.706;2023-04-01T00:18:59;10.70;99.90
11035;DHT22;5571;48.110;-1.706;2023-04-01T00:21:25;10.70;99.90
11035;DHT22;5571;48.110;-1.706;2023-04-01T00:23:51;10.70;99.90
11035;DHT22;5571;48.110;-1.706;2023-04-01T00:26:17;10.70;99.90
11035;DHT22;5571;48.110;-1.706;2023-04-01T00:28:45;10.60;99.90
11035;DHT22;5571;48.110;-1.706;2023-04-01T00:31:12;10.70;99.90
11035;DHT22;5571;48.110;-1.706;2023-04-01T00:33:38;10.60;99.90
11035;DHT22;5571;48.110;-1.706;2023-04-01T00:36:17;10.60;99.90
11035;DHT22;5571;48.110;-1.706;2023-04-01T00:38:43;10.60;99.90
11035;DHT22;5571;48.110;-1.706;2023-04-01T00:41:10;10.60;99.90
11035;DHT22;5571;48.110;-1.706;2023-04-01T00:43:40;10.50;99.90
11035;DHT22;5571;48.110;-1.706;2023-04-01T00:46:06;10.60;99.90
11035;DHT22;5571;48.110;-1.706;2023-04-01T00:48:38;10.60;99.90
11035;DHT22;5571;48.110;-1.706;2023-04-01T00:51:11;10.50;99.90
11035;DHT22;5571;48.110;-1.706;2023-04-01T00:53:43;10.60;99.90
11035;DHT22;5571;48.110;-1.706;2023-04-01T00:56:10;10.50;99.90
11035;DHT22;5571;48.110;-1.706;2023-04-01T00:58:41;10.60;99.90
11035;DHT22;5571;48.110;-1.706;2023-04-01T01:01:08;10.60;99.90
11035;DHT22;5571;48.110;-1.706;2023-04-01T01:03:34;10.60;99.90
11035;DHT22;5571;48.110;-1.706;2023-04-01T01:06:24;10.60;99.90
11035;DHT22;5571;48.110;-1.706;2023-04-01T01:14:47;10.50;99.90
11035;DHT22;5571;48.110;-1.706;2023-04-01T01:17:34;10.50;99.90
11035;DHT22;5571;48.110;-1.706;2023-04-01T01:20:14;10.50;99.90
11035;DHT22;5571;48.110;-1.706;2023-04-01T01:22:57;10.50;99.90
11035;DHT22;5571;48.110;-1.706;2023-04-01T01:34:06;10.50;99.90
11035;DHT22;5571;48.110;-1.706;2023-04-01T01:36:36;10.50;99.90
11035;DHT22;5571;48.110;-1.706;2023-04-01T01:39:06;10.50;99.90
11035;DHT22;5571;48.110;-1.706;2023-04-01T01:41:35;10.50;99.90
11035;DHT22;5571;48.110;-1.706;2023-04-01T01:44:04;10.50;99.90
11035;DHT22;5571;48.110;-1.706;2023-04-01T01:46:31;10.50;99.90
11035;DHT22;5571;48.110;-1.706;2023-04-01T01:48:57;10.50;99.90
11035;DHT22;5571;48.110;-1.706;2023-04-01T01:51:26;10.50;99.90
11035;DHT22;5571;48.110;-1.706;2023-04-01T01:53:53;10.50;99.90
11035;DHT22;5571;48.110;-1.706;2023-04-01T01:56:21;10.50;99.90
11035;DHT22;5571;48.110;-1.706;2023-04-01T01:58:50;10.50;99.90
11035;DHT22;5571;48.110;-1.706;2023-04-01T02:01:23;10.40;99.90
11035;DHT22;5571;48.110;-1.706;2023-04-01T02:03:51;10.40;99.90
11035;DHT22;5571;48.110;-1.706;2023-04-01T02:06:21;10.30;99.90
11035;DHT22;5571;48.110;-1.706;2023-04-01T02:11:29;10.30;99.90
11035;DHT22;5571;48.110;-1.706;2023-04-01T02:14:01;10.40;99.90
11035;DHT22;5571;48.110;-1.706;2023-04-01T02:16:36;10.40;99.90
11035;DHT22;5571;48.110;-1.706;2023-04-01T02:19:05;10.40;99.90
11035;DHT22;5571;48.110;-1.706;2023-04-01T02:21:33;10.40;99.90
11035;DHT22;5571;48.110;-1.706;2023-04-01T02:24:02;10.40;99.90
11035;DHT22;5571;48.110;-1.706;2023-04-01T02:26:29;10.30;99.90
11035;DHT22;5571;48.110;-1.706;2023-04-01T02:28:56;10.30;99.90
11035;DHT22;5571;48.110;-1.706;2023-04-01T02:31:24;10.30;99.90
11035;DHT22;5571;48.110;-1.706;2023-04-01T02:33:50;10.30;99.90
11035;DHT22;5571;48.110;-1.706;2023-04-01T02:36:16;10.20;99.90
11035;DHT22;5571;48.110;-1.706;2023-04-01T02:38:44;10.30;99.90
11035;DHT22;5571;48.110;-1.706;2023-04-01T02:41:10;10.20;99.90
11035;DHT22;5571;48.110;-1.706;2023-04-01T02:43:37;10.20;99.90
11035;DHT22;5571;48.110;-1.706;2023-04-01T02:46:02;10.20;99.90
11035;DHT22;5571;48.110;-1.706;2023-04-01T02:48:28;10.20;99.90
11035;DHT22;5571;48.110;-1.706;2023-04-01T02:50:54;10.20;99.90
11035;DHT22;5571;48.110;-1.706;2023-04-01T02:53:20;10.20;99.90
11035;DHT22;5571;48.110;-1.706;2023-04-01T02:55:46;10.20;99.90
11035;DHT22;5571;48.110;-1.706;2023-04-01T02:58:11;10.10;99.90
11035;DHT22;5571;48.110;-1.706;2023-04-01T03:00:37;10.20;99.90
11035;DHT22;5571;48.110;-1.706;2023-04-01T03:03:03;10.10;99.90
11035;DHT22;5571;48.110;-1.706;2023-04-01T03:05:29;10.10;99.90
11035;DHT22;5571;48.110;-1.706;2023-04-01T03:07:55;10.10;99.90
11035;DHT22;5571;48.110;-1.706;2023-04-01T03:10:21;10.10;99.90
11035;DHT22;5571;48.110;-1.706;2023-04-01T03:12:46;10.10;99.90
11035;DHT22;5571;48.110;-1.706;2023-04-01T03:15:13;10.10;99.90
11035;DHT22;5571;48.110;-1.706;2023-04-01T03:17:40;10.10;99.90
11035;DHT22;5571;48.110;-1.706;2023-04-01T03:20:07;10.00;99.90
11035;DHT22;5571;48.110;-1.706;2023-04-01T03:22:34;10.00;99.90
11035;DHT22;5571;48.110;-1.706;2023-04-01T03:25:01;10.10;99.90
11035;DHT22;5571;48.110;-1.706;2023-04-01T03:27:26;10.00;99.90
11035;DHT22;5571;48.110;-1.706;2023-04-01T03:29:52;10.00;99.90
11035;DHT22;5571;48.110;-1.706;2023-04-01T03:32:18;10.00;99.90
11035;DHT22;5571;48.110;-1.706;2023-04-01T03:34:43;10.00;99.90
11035;DHT22;5571;48.110;-1.706;2023-04-01T03:37:09;10.00;99.90
11035;DHT22;5571;48.110;-1.706;2023-04-01T03:39:35;10.00;99.90
11035;DHT22;5571;48.110;-1.706;2023-04-01T03:42:01;9.90;99.90
11035;DHT22;5571;48.110;-1.706;2023-04-01T03:44:30;10.00;99.90
11035;DHT22;5571;48.110;-1.706;2023-04-01T03:46:56;9.90;99.90
11035;DHT22;5571;48.110;-1.706;2023-04-01T03:49:22;9.90;99.90
11035;DHT22;5571;48.110;-1.706;2023-04-01T03:51:47;9.90;99.90
11035;DHT22;5571;48.110;-1.706;2023-04-01T03:54:13;10.00;99.90
11035;DHT22;5571;48.110;-1.706;2023-04-01T03:56:39;10.00;99.90
11035;DHT22;5571;48.110;-1.706;2023-04-01T03:59:06;10.00;99.90
11035;DHT22;5571;48.110;-1.706;2023-04-01T04:01:32;10.10;99.90
11035;DHT22;5571;48.110;-1.706;2023-04-01T04:03:58;10.10;99.90
11035;DHT22;5571;48.110;-1.706;2023-04-01T04:06:25;10.10;99.90
11035;DHT22;5571;48.110;-1.706;2023-04-01T04:08:51;10.10;99.90
11035;DHT22;5571;48.110;-1.706;2023-04-01T04:11:19;10.10;99.90
11035;DHT22;5571;48.110;-1.706;2023-04-01T04:13:45;10.20;99.90
11035;DHT22;5571;48.110;-1.706;2023-04-01T04:16:13;10.20;99.90
11035;DHT22;5571;48.110;-1.706;2023-04-01T04:18:39;10.20;99.90
11035;DHT22;5571;48.110;-1.706;2023-04-01T04:21:05;10.20;99.90
11035;DHT22;5571;48.110;-1.706;2023-04-01T04:23:31;10.20;99.90
11035;DHT22;5571;48.110;-1.706;2023-04-01T04:26:04;10.20;99.90
11035;DHT22;5571;48.110;-1.706;2023-04-01T04:28:31;10.30;99.90
11035;DHT22;5571;48.110;-1.706;2023-04-01T04:30:57;10.30;99.90
11035;DHT22;5571;48.110;-1.706;2023-04-01T04:33:23;10.30;99.90
11035;DHT22;5571;48.110;-1.706;2023-04-01T04:35:49;10.30;99.90
11035;DHT22;5571;48.110;-1.706;2023-04-01T04:38:15;10.30;99.90
11035;DHT22;5571;48.110;-1.706;2023-04-01T04:40:42;10.30;99.90
11035;DHT22;5571;48.110;-1.706;2023-04-01T04:43:11;10.30;99.90
11035;DHT22;5571;48.110;-1.706;2023-04-01T04:45:37;10.20;99.90
11035;DHT22;5571;48.110;-1.706;2023-04-01T04:48:04;10.20;99.90
11035;DHT22;5571;48.110;-1.706;2023-04-01T04:50:30;10.20;99.90
11035;DHT22;5571;48.110;-1.706;2023-04-01T04:52:56;10.10;99.90
11035;DHT22;5571;48.110;-1.706;2023-04-01T04:55:21;10.20;99.90
11035;DHT22;5571;48.110;-1.706;2023-04-01T04:57:47;10.20;99.90
11035;DHT22;5571;48.110;-1.706;2023-04-01T05:00:14;10.20;99.90
11035;DHT22;5571;48.110;-1.706;2023-04-01T05:02:40;10.10;99.90
11035;DHT22;5571;48.110;-1.706;2023-04-01T05:05:06;10.10;99.90
11035;DHT22;5571;48.110;-1.706;2023-04-01T05:07:33;10.10;99.90
11035;DHT22;5571;48.110;-1.706;2023-04-01T05:09:59;10.10;99.90
11035;DHT22;5571;48.110;-1.706;2023-04-01T05:12:27;10.10;99.90
11035;DHT22;5571;48.110;-1.706;2023-04-01T05:14:52;10.00;99.90
11035;DHT22;5571;48.110;-1.706;2023-04-01T05:17:18;10.00;99.90
11035;DHT22;5571;48.110;-1.706;2023-04-01T05:19:43;9.90;99.90
11035;DHT22;5571;48.110;-1.706;2023-04-01T05:22:09;9.80;99.90
11035;DHT22;5571;48.110;-1.706;2023-04-01T05:24:35;9.90;99.90
11035;DHT22;5571;48.110;-1.706;2023-04-01T05:27:00;9.80;99.90
11035;DHT22;5571;48.110;-1.706;2023-04-01T05:29:26;9.80;99.90
11035;DHT22;5571;48.110;-1.706;2023-04-01T05:31:52;9.80;99.90
11035;DHT22;5571;48.110;-1.706;2023-04-01T05:34:18;9.70;99.90
11035;DHT22;5571;48.110;-1.706;2023-04-01T05:36:44;9.70;99.90
11035;DHT22;5571;48.110;-1.706;2023-04-01T05:39:09;9.70;99.90
11035;DHT22;5571;48.110;-1.706;2023-04-01T05:41:36;9.70;99.90
11035;DHT22;5571;48.110;-1.706;2023-04-01T05:44:02;9.70;99.90
11035;DHT22;5571;48.110;-1.706;2023-04-01T05:46:28;9.60;99.90
11035;DHT22;5571;48.110;-1.706;2023-04-01T05:48:53;9.60;99.90
11035;DHT22;5571;48.110;-1.706;2023-04-01T05:51:19;9.60;99.90
11035;DHT22;5571;48.110;-1.706;2023-04-01T05:53:45;9.70;99.90
11035;DHT22;5571;48.110;-1.706;2023-04-01T05:56:10;9.60;99.90
11035;DHT22;5571;48.110;-1.706;2023-04-01T05:58:37;9.60;99.90
11035;DHT22;5571;48.110;-1.706;2023-04-01T06:01:04;9.60;99.90
11035;DHT22;5571;48.110;-1.706;2023-04-01T06:03:30;9.60;99.90
11035;DHT22;5571;48.110;-1.706;2023-04-01T06:05:56;9.60;99.90
11035;DHT22;5571;48.110;-1.706;2023-04-01T06:08:21;9.60;99.90
11035;DHT22;5571;48.110;-1.706;2023-04-01T06:24:19;9.60;99.90
11035;DHT22;5571;48.110;-1.706;2023-04-01T06:29:19;9.60;99.90
11035;DHT22;5571;48.110;-1.706;2023-04-01T06:32:15;9.70;99.90
11035;DHT22;5571;48.110;-1.706;2023-04-01T06:46:40;9.80;99.90
11035;DHT22;5571;48.110;-1.706;2023-04-01T06:54:47;9.90;99.90
11035;DHT22;5571;48.110;-1.706;2023-04-01T06:57:25;9.90;99.90
11035;DHT22;5571;48.110;-1.706;2023-04-01T06:59:55;10.00;99.90
11035;DHT22;5571;48.110;-1.706;2023-04-01T07:02:42;10.00;99.90
11035;DHT22;5571;48.110;-1.706;2023-04-01T07:05:11;10.10;99.90
11035;DHT22;5571;48.110;-1.706;2023-04-01T07:07:42;10.10;99.90
11035;DHT22;5571;48.110;-1.706;2023-04-01T07:11:22;10.10;99.90
11035;DHT22;5571;48.110;-1.706;2023-04-01T07:13:22;10.20;99.90
11035;DHT22;5571;48.110;-1.706;2023-04-01T07:18:44;10.30;99.90
11035;DHT22;5571;48.110;-1.706;2023-04-01T07:22:05;10.30;99.90
11035;DHT22;5571;48.110;-1.706;2023-04-01T07:24:11;10.40;99.90
11035;DHT22;5571;48.110;-1.706;2023-04-01T07:26:37;10.40;99.90
11035;DHT22;5571;48.110;-1.706;2023-04-01T07:29:09;10.50;99.90
11035;DHT22;5571;48.110;-1.706;2023-04-01T07:31:45;10.50;99.90
11035;DHT22;5571;48.110;-1.706;2023-04-01T07:34:26;10.70;99.90
11035;DHT22;5571;48.110;-1.706;2023-04-01T07:50:32;10.80;99.90
11035;DHT22;5571;48.110;-1.706;2023-04-01T07:56:12;10.90;99.90
11035;DHT22;5571;48.110;-1.706;2023-04-01T08:01:41;11.10;99.90
11035;DHT22;5571;48.110;-1.706;2023-04-01T08:06:59;11.30;99.90
11035;DHT22;5571;48.110;-1.706;2023-04-01T08:09:33;11.40;99.90
11035;DHT22;5571;48.110;-1.706;2023-04-01T08:14:48;11.30;99.90
11035;DHT22;5571;48.110;-1.706;2023-04-01T08:20:25;11.30;99.90
11035;DHT22;5571;48.110;-1.706;2023-04-01T08:26:12;11.50;99.90
11035;DHT22;5571;48.110;-1.706;2023-04-01T08:31:16;11.30;99.90
11035;DHT22;5571;48.110;-1.706;2023-04-01T08:33:46;11.40;99.90
11035;DHT22;5571;48.110;-1.706;2023-04-01T08:38:49;11.40;99.90
11035;DHT22;5571;48.110;-1.706;2023-04-01T08:56:25;11.50;99.90
11035;DHT22;5571;48.110;-1.706;2023-04-01T09:10:19;12.00;99.90
11035;DHT22;5571;48.110;-1.706;2023-04-01T09:13:04;12.10;99.90
11035;DHT22;5571;48.110;-1.706;2023-04-01T09:21:29;12.20;99.90
11035;DHT22;5571;48.110;-1.706;2023-04-01T09:24:24;12.10;99.90
11035;DHT22;5571;48.110;-1.706;2023-04-01T09:51:34;11.90;99.90
11035;DHT22;5571;48.110;-1.706;2023-04-01T10:03:13;12.20;99.90
11035;DHT22;5571;48.110;-1.706;2023-04-01T10:08:45;12.10;99.90
11035;DHT22;5571;48.110;-1.706;2023-04-01T10:19:59;11.90;99.90
11035;DHT22;5571;48.110;-1.706;2023-04-01T10:50:28;13.20;99.90
11035;DHT22;5571;48.110;-1.706;2023-04-01T10:53:23;13.30;99.90
11035;DHT22;5571;48.110;-1.706;2023-04-01T11:16:55;13.90;99.90
11035;DHT22;5571;48.110;-1.706;2023-04-01T11:27:42;13.40;99.90
11035;DHT22;5571;48.110;-1.706;2023-04-01T11:33:18;12.70;99.90
11035;DHT22;5571;48.110;-1.706;2023-04-01T11:42:24;11.80;99.90
11035;DHT22;5571;48.110;-1.706;2023-04-01T11:51:15;11.70;99.90
11035;DHT22;5571;48.110;-1.706;2023-04-01T11:54:12;11.90;99.90
11035;DHT22;5571;48.110;-1.706;2023-04-01T12:02:23;12.50;99.90
11035;DHT22;5571;48.110;-1.706;2023-04-01T12:10:21;13.70;99.90
11035;DHT22;5571;48.110;-1.706;2023-04-01T12:33:27;15.10;99.90
11035;DHT22;5571;48.110;-1.706;2023-04-01T12:41:33;14.80;99.90
11035;DHT22;5571;48.110;-1.706;2023-04-01T12:55:35;14.50;99.90
11035;DHT22;5571;48.110;-1.706;2023-04-01T13:03:53;14.30;99.90
11035;DHT22;5571;48.110;-1.706;2023-04-01T13:14:59;13.10;99.90
11035;DHT22;5571;48.110;-1.706;2023-04-01T13:23:06;13.10;99.90
11035;DHT22;5571;48.110;-1.706;2023-04-01T13:25:39;13.10;99.90
11035;DHT22;5571;48.110;-1.706;2023-04-01T13:28:25;13.00;99.90
11035;DHT22;5571;48.110;-1.706;2023-04-01T13:36:08;13.00;99.90
11035;DHT22;5571;48.110;-1.706;2023-04-01T13:41:43;13.30;99.90
11035;DHT22;5571;48.110;-1.706;2023-04-01T13:44:20;13.50;99.90
11035;DHT22;5571;48.110;-1.706;2023-04-01T13:46:59;14.00;99.90
11035;DHT22;5571;48.110;-1.706;2023-04-01T13:52:31;14.80;99.90
11035;DHT22;5571;48.110;-1.706;2023-04-01T13:55:22;14.40;99.90
11035;DHT22;5571;48.110;-1.706;2023-04-01T14:00:54;13.60;99.90
11035;DHT22;5571;48.110;-1.706;2023-04-01T14:06:13;13.70;99.90
11035;DHT22;5571;48.110;-1.706;2023-04-01T14:11:45;15.00;99.90
11035;DHT22;5571;48.110;-1.706;2023-04-01T14:25:43;16.20;99.90
11035;DHT22;5571;48.110;-1.706;2023-04-01T14:31:18;15.40;99.90
11035;DHT22;5571;48.110;-1.706;2023-04-01T14:37:07;14.20;99.90
11035;DHT22;5571;48.110;-1.706;2023-04-01T14:40:14;13.90;99.90
11035;DHT22;5571;48.110;-1.706;2023-04-01T14:49:13;14.30;99.90
11035;DHT22;5571;48.110;-1.706;2023-04-01T14:51:40;14.50;99.90
11035;DHT22;5571;48.110;-1.706;2023-04-01T14:54:36;14.70;99.90
11035;DHT22;5571;48.110;-1.706;2023-04-01T14:57:22;15.10;99.90
11035;DHT22;5571;48.110;-1.706;2023-04-01T15:03:11;16.00;99.90
11035;DHT22;5571;48.110;-1.706;2023-04-01T15:08:32;16.60;99.90
11035;DHT22;5571;48.110;-1.706;2023-04-01T15:32:00;16.40;99.90
11035;DHT22;5571;48.110;-1.706;2023-04-01T15:40:20;16.60;99.90
11035;DHT22;5571;48.110;-1.706;2023-04-01T15:45:35;16.50;99.90
11035;DHT22;5571;48.110;-1.706;2023-04-01T15:48:40;16.50;99.90
11035;DHT22;5571;48.110;-1.706;2023-04-01T16:02:52;15.50;99.90
11035;DHT22;5571;48.110;-1.706;2023-04-01T16:05:35;15.50;99.90
11035;DHT22;5571;48.110;-1.706;2023-04-01T16:17:11;14.90;99.90
11035;DHT22;5571;48.110;-1.706;2023-04-01T16:22:31;14.50;99.90
11035;DHT22;5571;48.110;-1.706;2023-04-01T16:30:37;14.50;99.90
11035;DHT22;5571;48.110;-1.706;2023-04-01T16:33:14;14.40;99.90
11035;DHT22;5571;48.110;-1.706;2023-04-01T16:35:53;14.40;99.90
11035;DHT22;5571;48.110;-1.706;2023-04-01T16:43:47;14.10;99.90
11035;DHT22;5571;48.110;-1.706;2023-04-01T16:46:27;14.10;99.90
11035;DHT22;5571;48.110;-1.706;2023-04-01T16:49:15;14.00;99.90
11035;DHT22;5571;48.110;-1.706;2023-04-01T16:54:53;13.90;99.90
11035;DHT22;5571;48.110;-1.706;2023-04-01T16:57:52;13.80;99.90
11035;DHT22;5571;48.110;-1.706;2023-04-01T17:00:47;13.80;99.90
11035;DHT22;5571;48.110;-1.706;2023-04-01T17:03:27;13.80;99.90
11035;DHT22;5571;48.110;-1.706;2023-04-01T17:11:18;13.80;99.90
11035;DHT22;5571;48.110;-1.706;2023-04-01T17:14:10;13.80;99.90
11035;DHT22;5571;48.110;-1.706;2023-04-01T17:20:42;13.80;99.90
11035;DHT22;5571;48.110;-1.706;2023-04-01T17:25:28;13.40;99.90
11035;DHT22;5571;48.110;-1.706;2023-04-01T17:36:31;13.20;99.90
11035;DHT22;5571;48.110;-1.706;2023-04-01T17:42:06;13.10;99.90
11035;DHT22;5571;48.110;-1.706;2023-04-01T17:44:57;13.10;99.90
11035;DHT22;5571;48.110;-1.706;2023-04-01T17:50:24;13.00;99.90
11035;DHT22;5571;48.110;-1.706;2023-04-01T17:53:31;12.90;99.90
11035;DHT22;5571;48.110;-1.706;2023-04-01T17:58:37;12.80;99.90
11035;DHT22;5571;48.110;-1.706;2023-04-01T18:01:26;12.80;99.90
11035;DHT22;5571;48.110;-1.706;2023-04-01T18:08:58;12.70;99.90
11035;DHT22;5571;48.110;-1.706;2023-04-01T18:31:32;12.60;99.90
11035;DHT22;5571;48.110;-1.706;2023-04-01T18:36:55;12.50;99.90
11035;DHT22;5571;48.110;-1.706;2023-04-01T18:39:22;12.40;99.90
11035;DHT22;5571;48.110;-1.706;2023-04-01T18:41:56;12.40;99.90
11035;DHT22;5571;48.110;-1.706;2023-04-01T18:50:14;12.30;99.90
11035;DHT22;5571;48.110;-1.706;2023-04-01T18:52:44;12.40;99.90
11035;DHT22;5571;48.110;-1.706;2023-04-01T18:55:36;12.40;99.90
11035;DHT22;5571;48.110;-1.706;2023-04-01T19:01:04;12.30;99.90
11035;DHT22;5571;48.110;-1.706;2023-04-01T19:03:53;12.30;99.90
11035;DHT22;5571;48.110;-1.706;2023-04-01T19:06:35;12.30;99.90
11035;DHT22;5571;48.110;-1.706;2023-04-01T19:09:18;12.30;99.90
11035;DHT22;5571;48.110;-1.706;2023-04-01T19:12:22;12.30;99.90
11035;DHT22;5571;48.110;-1.706;2023-04-01T19:17:54;12.30;99.90
11035;DHT22;5571;48.110;-1.706;2023-04-01T19:25:43;12.00;99.90
11035;DHT22;5571;48.110;-1.706;2023-04-01T19:28:47;12.00;99.90
11035;DHT22;5571;48.110;-1.706;2023-04-01T19:34:14;12.00;99.90
11035;DHT22;5571;48.110;-1.706;2023-04-01T19:36:52;11.90;99.90
11035;DHT22;5571;48.110;-1.706;2023-04-01T19:50:48;11.80;99.90
11035;DHT22;5571;48.110;-1.706;2023-04-01T19:54:10;11.80;99.90
11035;DHT22;5571;48.110;-1.706;2023-04-01T19:57:11;11.80;99.90
11035;DHT22;5571;48.110;-1.706;2023-04-01T19:59:50;11.80;99.90
11035;DHT22;5571;48.110;-1.706;2023-04-01T20:02:28;11.80;99.90
11035;DHT22;5571;48.110;-1.706;2023-04-01T20:04:57;11.80;99.90
11035;DHT22;5571;48.110;-1.706;2023-04-01T20:07:35;11.80;99.90
11035;DHT22;5571;48.110;-1.706;2023-04-01T20:10:25;11.80;99.90
11035;DHT22;5571;48.110;-1.706;2023-04-01T20:16:06;11.80;99.90
11035;DHT22;5571;48.110;-1.706;2023-04-01T20:18:54;11.80;99.90
11035;DHT22;5571;48.110;-1.706;2023-04-01T20:24:19;11.80;99.90
11035;DHT22;5571;48.110;-1.706;2023-04-01T20:27:10;11.70;99.90
11035;DHT22;5571;48.110;-1.706;2023-04-01T20:29:56;11.70;99.90
11035;DHT22;5571;48.110;-1.706;2023-04-01T20:32:35;11.60;99.90
11035;DHT22;5571;48.110;-1.706;2023-04-01T20:40:25;11.50;99.90
11035;DHT22;5571;48.110;-1.706;2023-04-01T20:43:14;11.50;99.90
11035;DHT22;5571;48.110;-1.706;2023-04-01T20:45:50;11.40;99.90
11035;DHT22;5571;48.110;-1.706;2023-04-01T20:51:30;11.40;99.90
11035;DHT22;5571;48.110;-1.706;2023-04-01T20:54:05;11.40;99.90
11035;DHT22;5571;48.110;-1.706;2023-04-01T20:57:06;11.40;99.90
11035;DHT22;5571;48.110;-1.706;2023-04-01T21:00:19;11.40;99.90
11035;DHT22;5571;48.110;-1.706;2023-04-01T21:27:27;10.90;99.90
11035;DHT22;5571;48.110;-1.706;2023-04-01T21:33:11;10.90;99.90
11035;DHT22;5571;48.110;-1.706;2023-04-01T21:35:48;11.00;99.90
11035;DHT22;5571;48.110;-1.706;2023-04-01T21:38:22;11.00;99.90
11035;DHT22;5571;48.110;-1.706;2023-04-01T21:41:00;11.00;99.90
11035;DHT22;5571;48.110;-1.706;2023-04-01T21:57:44;11.10;99.90
11035;DHT22;5571;48.110;-1.706;2023-04-01T22:00:18;11.10;99.90
11035;DHT22;5571;48.110;-1.706;2023-04-01T22:03:31;11.20;99.90
11035;DHT22;5571;48.110;-1.706;2023-04-01T22:14:09;11.20;99.90
11035;DHT22;5571;48.110;-1.706;2023-04-01T22:19:41;11.20;99.90
11035;DHT22;5571;48.110;-1.706;2023-04-01T22:27:59;11.30;99.90
11035;DHT22;5571;48.110;-1.706;2023-04-01T22:31:14;11.40;99.90
11035;DHT22;5571;48.110;-1.706;2023-04-01T22:44:38;11.40;99.90
11035;DHT22;5571;48.110;-1.706;2023-04-01T22:47:30;11.40;99.90
11035;DHT22;5571;48.110;-1.706;2023-04-01T22:50:02;11.30;99.90
11035;DHT22;5571;48.110;-1.706;2023-04-01T22:52:40;11.30;99.90
11035;DHT22;5571;48.110;-1.706;2023-04-01T22:55:25;11.30;99.90
11035;DHT22;5571;48.110;-1.706;2023-04-01T22:58:02;11.20;99.90
11035;DHT22;5571;48.110;-1.706;2023-04-01T23:00:52;11.20;99.90
11035;DHT22;5571;48.110;-1.706;2023-04-01T23:03:35;11.20;99.90
11035;DHT22;5571;48.110;-1.706;2023-04-01T23:06:05;11.20;99.90
11035;DHT22;5571;48.110;-1.706;2023-04-01T23:09:05;11.10;99.90
11035;DHT22;5571;48.110;-1.706;2023-04-01T23:11:53;11.10;99.90
11035;DHT22;5571;48.110;-1.706;2023-04-01T23:17:05;11.00;99.90
11035;DHT22;5571;48.110;-1.706;2023-04-01T23:19:40;11.00;99.90
11035;DHT22;5571;48.110;-1.706;2023-04-01T23:22:21;11.00;99.90
11035;DHT22;5571;48.110;-1.706;2023-04-01T23:24:55;11.00;99.90
11035;DHT22;5571;48.110;-1.706;2023-04-01T23:27:30;11.00;99.90
11035;DHT22;5571;48.110;-1.706;2023-04-01T23:30:00;10.90;99.90
11035;DHT22;5571;48.110;-1.706;2023-04-01T23:32:26;10.90;99.90
11035;DHT22;5571;48.110;-1.706;2023-04-01T23:34:55;10.80;99.90
11035;DHT22;5571;48.110;-1.706;2023-04-01T23:37:23;10.80;99.90
11035;DHT22;5571;48.110;-1.706;2023-04-01T23:39:56;10.80;99.90
11035;DHT22;5571;48.110;-1.706;2023-04-01T23:42:37;10.80;99.90
11035;DHT22;5571;48.110;-1.706;2023-04-01T23:45:11;10.80;99.90
11035;DHT22;5571;48.110;-1.706;2023-04-01T23:47:40;10.80;99.90
11035;DHT22;5571;48.110;-1.706;2023-04-01T23:50:14;10.80;99.90
11035;DHT22;5571;48.110;-1.706;2023-04-01T23:52:42;10.90;99.90
11035;DHT22;5571;48.110;-1.706;2023-04-01T23:55:17;10.80;99.90
